Time;durP1;ratioP1;P1;durP2;ratioP2;P2;SDS_P1;SDS_P2;PMS_P1;PMS_P2;Temp;Humidity;BMP_temperature;BMP_pressure;BME280_temperature;BME280_humidity;BME280_pressure;Samples;Min_cycle;Max_cycle;Signal;HPM_P1;HPM_P2
2023/01/19 00:00:45;;;;;;;10.02;6.10;;;0.70;99.90;;;;;;15199522;23;20530;-37
2023/01/19 00:06:47;;;;;;;10.70;6.90;;;0.70;99.90;;;;;;15171832;23;20108;-37
2023/01/19 00:12:49;;;;;;;13.20;6.55;;;0.70;99.90;;;;;;15198062;23;20105;-37
2023/01/19 00:18:52;;;;;;;11.45;6.57;;;0.70;99.90;;;;;;15199637;23;20058;-38
2023/01/19 00:24:54;;;;;;;13.88;6.63;;;0.80;99.90;;;;;;15197806;23;20038;-37
2023/01/19 00:30:56;;;;;;;12.52;5.95;;;0.90;99.90;;;;;;15201453;23;20028;-37
2023/01/19 00:37:00;;;;;;;16.75;6.25;;;0.90;99.90;;;;;;15206772;23;20026;-37
2023/01/19 00:43:03;;;;;;;;;;;0.90;99.90;;;;;;15201584;23;20100;-39
2023/01/19 00:49:05;;;;;;;12.25;6.75;;;0.80;99.90;;;;;;15203252;23;20346;-39
2023/01/19 00:55:10;;;;;;;11.45;7.50;;;0.80;99.90;;;;;;15201708;23;20026;-38
2023/01/19 01:01:11;;;;;;;12.70;6.57;;;0.90;99.90;;;;;;15200253;23;20362;-38
2023/01/19 01:07:14;;;;;;;15.80;7.80;;;1.00;99.90;;;;;;15197456;23;20682;-38
2023/01/19 01:13:16;;;;;;;14.68;6.90;;;0.90;99.90;;;;;;15200058;23;20442;-39
2023/01/19 01:19:22;;;;;;;13.63;7.28;;;0.80;99.90;;;;;;15204954;23;20343;-39
2023/01/19 01:25:26;;;;;;;16.83;7.85;;;0.90;99.90;;;;;;15202943;23;20022;-39
2023/01/19 01:31:28;;;;;;;15.43;8.77;;;1.00;99.90;;;;;;15173569;23;20025;-38
2023/01/19 01:37:31;;;;;;;11.98;7.55;;;1.00;99.90;;;;;;15200798;23;20025;-38
2023/01/19 01:43:44;;;;;;;14.73;7.78;;;1.00;99.90;;;;;;15173202;23;20038;-39
2023/01/19 01:49:47;;;;;;;14.32;8.02;;;0.90;99.90;;;;;;15205225;23;20142;-39
2023/01/19 01:55:49;;;;;;;15.48;8.13;;;1.00;99.90;;;;;;15202991;23;20471;-39
2023/01/19 02:15:13;;;;;;;16.65;9.45;;;1.00;99.90;;;;;;15195650;23;20134;-39
2023/01/19 02:21:35;;;;;;;15.73;8.77;;;1.10;99.90;;;;;;15201273;23;20145;-39
2023/01/19 02:27:38;;;;;;;16.05;8.98;;;1.20;99.90;;;;;;15202907;23;20022;-38
2023/01/19 02:33:40;;;;;;;14.63;9.32;;;1.20;99.90;;;;;;15201267;23;20026;-39
2023/01/19 02:39:49;;;;;;;16.58;9.45;;;1.30;99.90;;;;;;15199747;23;20149;-39
2023/01/19 02:45:51;;;;;;;16.50;9.07;;;1.30;99.90;;;;;;15197661;23;20347;-38
2023/01/19 02:51:53;;;;;;;15.63;9.82;;;1.30;99.90;;;;;;15195903;23;20094;-38
2023/01/19 02:58:33;;;;;;;15.63;9.40;;;1.40;99.90;;;;;;15203244;23;20346;-37
2023/01/19 03:05:12;;;;;;;16.15;8.52;;;1.40;99.90;;;;;;15196288;23;20354;-38
2023/01/19 03:11:15;;;;;;;17.02;9.20;;;1.40;99.90;;;;;;15202822;23;20813;-38
2023/01/19 03:17:18;;;;;;;15.88;9.57;;;1.40;99.90;;;;;;15173597;23;20099;-38
2023/01/19 03:23:24;;;;;;;16.48;9.98;;;1.40;99.90;;;;;;15202508;23;20034;-38
2023/01/19 03:29:31;;;;;;;15.90;9.27;;;1.40;99.90;;;;;;15200668;23;20997;-37
2023/01/19 03:35:37;;;;;;;17.02;9.35;;;1.50;99.90;;;;;;15198215;23;20371;-38
2023/01/19 03:41:41;;;;;;;16.13;9.52;;;1.50;99.90;;;;;;15176230;23;20097;-37
2023/01/19 03:47:43;;;;;;;17.23;10.05;;;1.50;99.90;;;;;;15196859;23;20032;-37
2023/01/19 03:53:46;;;;;;;17.13;9.07;;;1.60;99.90;;;;;;15199957;23;20026;-38
2023/01/19 03:59:48;;;;;;;17.73;9.23;;;1.50;99.90;;;;;;15169167;23;20118;-36
2023/01/19 04:05:50;;;;;;;14.13;8.85;;;1.60;99.90;;;;;;15202156;23;20456;-38
2023/01/19 04:11:52;;;;;;;17.42;9.48;;;1.50;99.90;;;;;;15204057;23;20025;-38
2023/01/19 04:17:57;;;;;;;14.57;9.27;;;1.60;99.90;;;;;;15205962;23;20482;-38
2023/01/19 04:23:59;;;;;;;;;;;1.60;99.90;;;;;;15202885;23;20030;-38
2023/01/19 04:30:03;;;;;;;15.20;8.85;;;1.60;99.90;;;;;;15198241;23;19947;-38
2023/01/19 04:36:05;;;;;;;16.45;8.85;;;1.70;99.90;;;;;;15202983;23;20332;-37
2023/01/19 04:42:07;;;;;;;14.85;8.13;;;1.70;99.90;;;;;;15196999;23;20030;-38
2023/01/19 04:48:09;;;;;;;17.92;9.13;;;1.70;99.90;;;;;;15199724;23;20097;-38
2023/01/19 04:54:11;;;;;;;15.50;8.82;;;1.70;99.90;;;;;;15201418;23;20021;-37
2023/01/19 05:00:13;;;;;;;17.67;8.30;;;1.70;99.90;;;;;;15199409;23;20028;-38
2023/01/19 05:06:15;;;;;;;16.02;8.15;;;1.80;99.90;;;;;;15202469;23;20036;-37
2023/01/19 05:12:17;;;;;;;16.88;7.95;;;1.80;99.90;;;;;;15200909;23;20028;-38
2023/01/19 05:18:19;;;;;;;13.10;8.25;;;1.90;99.90;;;;;;15198512;23;20463;-37
2023/01/19 05:24:21;;;;;;;12.18;6.75;;;1.90;99.90;;;;;;15175427;23;20057;-37
2023/01/19 05:30:24;;;;;;;13.95;6.90;;;1.90;99.90;;;;;;15202688;23;20022;-38
2023/01/19 05:36:26;;;;;;;11.93;6.93;;;1.90;99.90;;;;;;15202910;23;20097;-38
2023/01/19 05:42:28;;;;;;;14.13;7.13;;;1.80;99.90;;;;;;15175081;23;20081;-38
2023/01/19 05:48:33;;;;;;;14.20;6.78;;;1.80;99.90;;;;;;15204119;23;20026;-37
2023/01/19 05:54:35;;;;;;;13.45;6.85;;;1.90;99.90;;;;;;15172439;23;20036;-38
2023/01/19 06:00:37;;;;;;;14.88;7.25;;;1.90;99.90;;;;;;15198972;23;20025;-38
2023/01/19 06:06:39;;;;;;;15.18;6.65;;;1.90;99.90;;;;;;15176394;23;20026;-39
2023/01/19 06:12:41;;;;;;;13.77;6.78;;;1.90;99.90;;;;;;15199698;23;20022;-36
2023/01/19 06:18:43;;;;;;;11.00;6.95;;;1.90;99.90;;;;;;15198439;23;20022;-36
2023/01/19 06:24:44;;;;;;;10.95;6.50;;;1.90;99.90;;;;;;15198260;23;20605;-36
2023/01/19 06:30:51;;;;;;;12.00;6.88;;;1.90;99.90;;;;;;15199523;23;20101;-36
2023/01/19 06:36:55;;;;;;;15.93;7.78;;;1.80;99.90;;;;;;15200034;23;20025;-36
2023/01/19 06:42:57;;;;;;;12.73;7.00;;;1.70;99.90;;;;;;15202788;23;20062;-36
2023/01/19 06:48:59;;;;;;;10.23;6.50;;;1.60;99.90;;;;;;15198076;23;20032;-36
2023/01/19 06:55:01;;;;;;;12.43;7.18;;;1.60;99.90;;;;;;15198412;23;20029;-36
2023/01/19 07:01:05;;;;;;;10.73;6.30;;;1.50;99.90;;;;;;15197650;23;20029;-36
2023/01/19 07:07:07;;;;;;;10.63;6.60;;;1.50;99.90;;;;;;15199673;23;20022;-36
2023/01/19 07:13:10;;;;;;;12.00;7.15;;;1.40;99.90;;;;;;15170504;23;20026;-36
2023/01/19 07:19:13;;;;;;;9.88;6.72;;;1.30;99.90;;;;;;15199573;23;20037;-36
2023/01/19 07:25:15;;;;;;;8.65;5.38;;;1.30;99.90;;;;;;15200391;23;20033;-36
2023/01/19 07:31:18;;;;;;;10.00;6.43;;;1.20;99.90;;;;;;15193251;23;20021;-36
2023/01/19 07:37:20;;;;;;;8.88;6.30;;;1.20;99.90;;;;;;15203150;23;20467;-36
2023/01/19 07:43:22;;;;;;;9.10;6.10;;;1.20;99.90;;;;;;15201479;23;20030;-36
2023/01/19 07:49:24;;;;;;;7.70;5.95;;;1.10;99.90;;;;;;15146083;23;20049;-36
2023/01/19 07:55:26;;;;;;;8.30;6.32;;;1.10;99.90;;;;;;15199282;23;20104;-36
2023/01/19 08:01:30;;;;;;;9.57;6.68;;;1.00;99.90;;;;;;15186320;23;20109;-36
2023/01/19 08:07:33;;;;;;;7.72;6.03;;;1.10;99.90;;;;;;15196907;23;20029;-36
2023/01/19 08:13:35;;;;;;;10.27;6.93;;;1.00;99.90;;;;;;15165926;23;20079;-36
2023/01/19 08:19:37;;;;;;;10.43;7.03;;;1.00;99.90;;;;;;15191336;23;20061;-36
2023/01/19 08:25:45;;;;;;;10.80;7.03;;;1.00;99.90;;;;;;15199883;23;20105;-36
2023/01/19 08:31:47;;;;;;;10.18;7.45;;;1.00;99.90;;;;;;15194920;23;20149;-36
2023/01/19 08:37:50;;;;;;;9.38;7.45;;;1.00;99.90;;;;;;15171310;23;20053;-36
2023/01/19 08:43:52;;;;;;;10.00;7.03;;;1.00;99.90;;;;;;15200605;23;20030;-36
2023/01/19 08:49:54;;;;;;;10.85;7.47;;;1.00;99.90;;;;;;15171061;23;20022;-37
2023/01/19 08:55:58;;;;;;;11.32;7.90;;;1.00;99.90;;;;;;15194650;23;20053;-37
2023/01/19 09:02:00;;;;;;;;;;;1.00;99.90;;;;;;15175788;23;20025;-36
2023/01/19 09:08:06;;;;;;;9.70;6.88;;;1.00;99.90;;;;;;15199450;23;19917;-36
2023/01/19 09:14:08;;;;;;;9.18;7.35;;;1.10;99.90;;;;;;15197358;23;20033;-36
2023/01/19 09:20:11;;;;;;;12.98;7.43;;;1.10;99.90;;;;;;15195504;23;20092;-36
2023/01/19 09:26:13;;;;;;;11.88;8.02;;;1.10;99.90;;;;;;15201371;23;20021;-36
2023/01/19 09:32:14;;;;;;;11.05;7.90;;;1.10;99.90;;;;;;15202954;23;20025;-36
2023/01/19 09:38:18;;;;;;;10.93;7.70;;;1.20;99.90;;;;;;15195145;23;20022;-36
2023/01/19 09:44:28;;;;;;;11.63;8.13;;;1.10;99.90;;;;;;15202772;23;20061;-36
2023/01/19 09:50:45;;;;;;;12.85;8.45;;;1.20;99.90;;;;;;15175788;23;20028;-35
2023/01/19 09:56:48;;;;;;;11.55;7.82;;;1.20;99.90;;;;;;15201886;23;20040;-37
2023/01/19 10:03:00;;;;;;;12.10;8.52;;;1.30;99.90;;;;;;15201915;23;20052;-36
2023/01/19 10:09:30;;;;;;;9.30;6.85;;;1.40;99.90;;;;;;15198762;23;20030;-36
2023/01/19 10:15:41;;;;;;;12.23;7.28;;;1.40;99.90;;;;;;15178017;23;20454;-36
2023/01/19 10:21:45;;;;;;;11.70;7.30;;;1.40;99.90;;;;;;15171561;23;20028;-36
2023/01/19 10:27:47;;;;;;;12.00;7.78;;;1.40;99.90;;;;;;15202201;23;20033;-36
2023/01/19 10:33:51;;;;;;;13.65;7.57;;;1.50;99.90;;;;;;15199669;23;20022;-36
2023/01/19 10:40:09;;;;;;;14.20;8.20;;;1.50;99.90;;;;;;15197500;23;20025;-36
2023/01/19 10:46:32;;;;;;;13.13;6.80;;;1.60;99.90;;;;;;15199262;23;20466;-36
2023/01/19 10:52:36;;;;;;;10.07;6.43;;;1.60;99.90;;;;;;15202499;23;20025;-36
2023/01/19 10:58:39;;;;;;;10.03;5.90;;;1.50;99.90;;;;;;15197455;23;20355;-36
2023/01/19 11:04:43;;;;;;;9.07;5.35;;;1.50;99.90;;;;;;15122679;23;20564;-36
2023/01/19 11:10:54;;;;;;;8.95;5.10;;;1.50;99.90;;;;;;15119594;23;20033;-36
2023/01/19 11:16:57;;;;;;;9.27;5.88;;;1.60;99.90;;;;;;15127177;23;20355;-36
2023/01/19 11:23:04;;;;;;;8.60;4.95;;;1.70;99.90;;;;;;15120524;23;20044;-36
2023/01/19 11:29:22;;;;;;;7.68;4.72;;;1.70;99.90;;;;;;15124174;23;20037;-36
2023/01/19 11:35:33;;;;;;;8.73;4.60;;;1.70;99.90;;;;;;15125980;23;20071;-36
2023/01/19 11:41:37;;;;;;;7.88;4.63;;;1.70;99.90;;;;;;15126851;23;20093;-37
2023/01/19 11:47:39;;;;;;;11.37;5.50;;;1.90;99.90;;;;;;15123331;23;20055;-37
2023/01/19 11:53:43;;;;;;;9.30;4.88;;;2.00;99.90;;;;;;15124878;23;20031;-36
2023/01/19 11:59:45;;;;;;;12.38;5.35;;;2.10;99.90;;;;;;15124608;23;20034;-36
2023/01/19 12:06:05;;;;;;;13.05;5.68;;;2.20;99.90;;;;;;15197018;23;20346;-36
2023/01/19 12:12:24;;;;;;;12.80;5.95;;;2.30;99.90;;;;;;15195354;23;20029;-36
2023/01/19 12:18:32;;;;;;;12.13;5.70;;;2.40;99.90;;;;;;15194284;23;20033;-36
2023/01/19 12:24:46;;;;;;;13.10;5.45;;;2.50;99.90;;;;;;15194400;23;20033;-36
2023/01/19 12:30:50;;;;;;;;;;;2.60;99.90;;;;;;15202253;23;20022;-36
2023/01/19 12:36:59;;;;;;;14.75;5.65;;;2.70;99.90;;;;;;15197948;23;19976;-36
2023/01/19 12:43:04;;;;;;;14.00;5.38;;;3.00;99.90;;;;;;15203772;23;20033;-37
2023/01/19 12:49:21;;;;;;;17.40;5.03;;;3.10;99.90;;;;;;15207069;23;20408;-37
2023/01/19 12:55:29;;;;;;;18.67;5.75;;;3.10;99.90;;;;;;15199193;23;20026;-36
2023/01/19 13:01:32;;;;;;;12.13;4.90;;;3.00;99.90;;;;;;15163430;23;20022;-37
2023/01/19 13:08:05;;;;;;;16.88;4.85;;;2.90;99.90;;;;;;15200312;23;20022;-37
2023/01/19 13:14:35;;;;;;;12.85;4.47;;;2.70;99.90;;;;;;15199639;23;20069;-36
2023/01/19 13:20:49;;;;;;;11.55;4.40;;;2.60;99.90;;;;;;15184893;23;20049;-36
2023/01/19 13:26:56;;;;;;;15.60;4.70;;;2.50;99.90;;;;;;15180447;23;20030;-37
2023/01/19 13:33:08;;;;;;;11.52;5.10;;;2.40;99.90;;;;;;15199596;23;20026;-36
2023/01/19 13:39:17;;;;;;;15.52;5.15;;;2.30;99.90;;;;;;15201832;23;20344;-36
2023/01/19 13:45:35;;;;;;;13.15;6.03;;;2.40;99.90;;;;;;15194505;23;20030;-36
2023/01/19 13:51:37;;;;;;;17.48;5.80;;;2.40;99.90;;;;;;15199154;23;20045;-36
2023/01/19 13:57:42;;;;;;;14.77;4.82;;;2.40;99.90;;;;;;15200693;23;20022;-36
2023/01/19 14:03:50;;;;;;;13.68;5.28;;;2.40;99.90;;;;;;15201960;23;20029;-37
2023/01/19 14:10:04;;;;;;;20.52;6.68;;;2.50;99.90;;;;;;15194291;23;20028;-36
2023/01/19 14:16:14;;;;;;;15.80;6.85;;;2.50;99.90;;;;;;15202327;23;20041;-36
2023/01/19 14:22:17;;;;;;;18.48;7.85;;;2.40;99.90;;;;;;15201788;23;20041;-36
2023/01/19 14:28:39;;;;;;;20.58;9.55;;;2.40;99.90;;;;;;15196732;23;20026;-37
2023/01/19 14:34:49;;;;;;;20.67;8.93;;;2.30;99.90;;;;;;15168104;23;20072;-36
2023/01/19 14:40:51;;;;;;;25.08;8.75;;;2.20;99.90;;;;;;15197070;23;20018;-36
2023/01/19 14:46:54;;;;;;;19.98;9.45;;;2.20;99.90;;;;;;15196002;23;20026;-36
2023/01/19 14:53:05;;;;;;;29.30;10.52;;;2.20;99.90;;;;;;15175115;23;20021;-39
2023/01/19 14:59:09;;;;;;;27.45;10.15;;;2.00;99.90;;;;;;15202770;23;20057;-36
2023/01/19 15:05:12;;;;;;;27.08;11.20;;;2.00;99.90;;;;;;15197707;23;20057;-36
2023/01/19 15:11:24;;;;;;;28.17;11.43;;;1.90;99.90;;;;;;15199233;23;20642;-36
2023/01/19 15:17:26;;;;;;;18.90;9.85;;;1.80;99.90;;;;;;15172801;23;20141;-36
2023/01/19 15:23:29;;;;;;;21.00;10.65;;;1.90;99.90;;;;;;15194160;23;20026;-36
2023/01/19 15:29:31;;;;;;;23.52;12.05;;;1.80;99.90;;;;;;15188807;23;20110;-36
2023/01/19 15:35:49;;;;;;;18.35;9.98;;;1.70;99.90;;;;;;15147207;23;20052;-36
2023/01/19 15:41:53;;;;;;;22.83;11.50;;;1.60;99.90;;;;;;15200190;23;20025;-37
2023/01/19 15:47:55;;;;;;;19.13;11.02;;;1.60;99.90;;;;;;15199941;23;20022;-37
2023/01/19 15:53:57;;;;;;;27.08;11.65;;;1.50;99.90;;;;;;15201400;23;20026;-36
2023/01/19 15:59:58;;;;;;;23.45;11.88;;;1.50;99.90;;;;;;15194959;23;20029;-37
2023/01/19 16:06:01;;;;;;;26.15;11.50;;;1.40;99.90;;;;;;15200238;23;20030;-36
2023/01/19 16:12:03;;;;;;;26.67;12.27;;;1.30;99.90;;;;;;15201120;23;20088;-36
2023/01/19 16:18:06;;;;;;;27.15;13.60;;;1.40;99.90;;;;;;15203133;23;20030;-36
2023/01/19 16:24:08;;;;;;;24.95;12.98;;;1.30;99.90;;;;;;15202600;23;20037;-36
2023/01/19 16:30:11;;;;;;;25.92;13.23;;;1.30;99.90;;;;;;15203383;23;20458;-36
2023/01/19 16:36:33;;;;;;;31.63;12.98;;;1.30;99.90;;;;;;15202311;23;20076;-36
2023/01/19 16:42:36;;;;;;;28.27;14.15;;;1.30;99.90;;;;;;15203861;23;20359;-36
2023/01/19 16:48:38;;;;;;;21.65;12.70;;;1.30;99.90;;;;;;15203686;23;20021;-36
2023/01/19 16:54:42;;;;;;;25.80;12.25;;;1.30;99.90;;;;;;15198173;23;20030;-36
2023/01/19 17:00:43;;;;;;;33.40;13.20;;;1.40;99.90;;;;;;15175749;23;20022;-36
2023/01/19 17:06:46;;;;;;;29.88;14.50;;;1.40;99.90;;;;;;15202681;23;20048;-36
2023/01/19 17:12:48;;;;;;;33.53;15.35;;;1.30;99.90;;;;;;15200577;23;20073;-36
2023/01/19 17:18:50;;;;;;;36.35;16.75;;;1.40;99.90;;;;;;15177702;23;20093;-36
2023/01/19 17:24:52;;;;;;;34.17;18.60;;;1.40;99.90;;;;;;15200339;23;20041;-36
2023/01/19 17:30:54;;;;;;;38.00;18.20;;;1.40;99.90;;;;;;15197528;23;20026;-36
2023/01/19 17:37:01;;;;;;;40.15;19.17;;;1.40;99.90;;;;;;15203655;23;20108;-36
2023/01/19 17:43:04;;;;;;;36.47;19.63;;;1.40;99.90;;;;;;15200277;23;20093;-37
2023/01/19 17:49:07;;;;;;;41.38;19.85;;;1.40;99.90;;;;;;15202447;23;20360;-36
2023/01/19 17:55:09;;;;;;;40.65;20.83;;;1.40;99.90;;;;;;15199538;23;20029;-36
2023/01/19 18:01:17;;;;;;;43.70;21.23;;;1.50;99.90;;;;;;15137640;23;20053;-36
2023/01/19 18:07:19;;;;;;;42.88;21.63;;;1.50;99.90;;;;;;15197846;23;20026;-37
2023/01/19 18:13:22;;;;;;;41.53;21.25;;;1.40;99.90;;;;;;15198652;23;20026;-36
2023/01/19 18:19:24;;;;;;;44.25;21.58;;;1.40;99.90;;;;;;15199927;23;20050;-36
2023/01/19 18:25:26;;;;;;;48.33;22.33;;;1.30;99.90;;;;;;15172916;23;20033;-36
2023/01/19 18:31:28;;;;;;;47.83;22.85;;;1.30;99.90;;;;;;15194632;23;20029;-36
2023/01/19 18:37:30;;;;;;;44.90;21.55;;;1.30;99.90;;;;;;15171227;23;20559;-36
2023/01/19 18:43:33;;;;;;;50.80;21.42;;;1.30;99.90;;;;;;15201468;23;20073;-36
2023/01/19 18:49:35;;;;;;;46.15;22.17;;;1.30;99.90;;;;;;15194401;23;20466;-37
2023/01/19 18:55:37;;;;;;;46.25;22.95;;;1.40;99.90;;;;;;15172799;23;20162;-36
2023/01/19 19:01:39;;;;;;;47.25;23.15;;;1.30;99.90;;;;;;15158366;23;20054;-36
2023/01/19 19:07:41;;;;;;;57.05;23.02;;;1.30;99.90;;;;;;15200219;23;20021;-36
2023/01/19 19:13:43;;;;;;;47.35;24.38;;;1.30;99.90;;;;;;15194880;23;20033;-37
2023/01/19 19:19:45;;;;;;;53.50;24.38;;;1.30;99.90;;;;;;15199171;23;20037;-36
2023/01/19 19:25:47;;;;;;;53.90;25.05;;;1.20;99.90;;;;;;15198782;23;20033;-36
2023/01/19 19:31:49;;;;;;;50.13;23.73;;;1.20;99.90;;;;;;15195468;23;20459;-36
2023/01/19 19:37:56;;;;;;;49.85;24.55;;;1.30;99.90;;;;;;15197699;23;20032;-37
2023/01/19 19:43:58;;;;;;;52.05;24.63;;;1.30;99.90;;;;;;15174597;23;20029;-37
2023/01/19 19:50:01;;;;;;;58.92;26.60;;;1.20;99.90;;;;;;15200292;23;20483;-36
2023/01/19 19:56:05;;;;;;;45.47;24.88;;;1.30;99.90;;;;;;15198784;23;20030;-37
2023/01/19 20:02:10;;;;;;;53.65;25.58;;;1.30;99.90;;;;;;15162749;23;20026;-36
2023/01/19 20:08:12;;;;;;;;;;;1.30;99.90;;;;;;15195111;23;20101;-36
2023/01/19 20:14:17;;;;;;;51.95;26.40;;;1.30;99.90;;;;;;15197370;23;19917;-37
2023/01/19 20:20:19;;;;;;;52.53;24.25;;;1.30;99.90;;;;;;15193406;23;20123;-37
2023/01/19 20:26:26;;;;;;;51.55;25.52;;;1.20;99.90;;;;;;15201564;23;20034;-36
2023/01/19 20:32:28;;;;;;;47.33;24.30;;;1.20;99.90;;;;;;15198037;23;20105;-36
2023/01/19 20:38:31;;;;;;;52.65;23.92;;;1.20;99.90;;;;;;15193753;23;20048;-36
2023/01/19 20:44:32;;;;;;;45.83;24.08;;;1.20;99.90;;;;;;15197500;23;20029;-36
2023/01/19 20:50:34;;;;;;;48.75;24.10;;;1.20;99.90;;;;;;15200895;23;20101;-36
2023/01/19 20:56:37;;;;;;;52.42;25.30;;;1.10;99.90;;;;;;15197878;23;20347;-36
2023/01/19 21:02:39;;;;;;;46.83;23.38;;;1.10;99.90;;;;;;15163440;23;20029;-37
2023/01/19 21:08:41;;;;;;;50.40;23.52;;;1.10;99.90;;;;;;15200248;23;20029;-36
2023/01/19 21:14:44;;;;;;;47.83;24.90;;;1.10;99.90;;;;;;15202749;23;20025;-36
2023/01/19 21:20:48;;;;;;;48.50;23.25;;;1.10;99.90;;;;;;15201114;23;20093;-37
2023/01/19 21:26:50;;;;;;;44.95;22.83;;;1.00;99.90;;;;;;15202523;23;20081;-36
2023/01/19 21:32:53;;;;;;;41.80;20.30;;;1.10;99.90;;;;;;15172559;23;20029;-37
2023/01/19 21:38:59;;;;;;;43.05;22.55;;;1.10;99.90;;;;;;15198104;23;20028;-36
2023/01/19 21:45:01;;;;;;;39.97;21.30;;;1.10;99.90;;;;;;15200568;23;20033;-36
2023/01/19 21:51:04;;;;;;;42.20;21.95;;;1.00;99.90;;;;;;15170958;23;20033;-37
2023/01/19 21:57:06;;;;;;;42.58;21.45;;;1.00;99.90;;;;;;15174106;23;20395;-35
2023/01/19 22:03:08;;;;;;;49.58;23.55;;;0.90;99.90;;;;;;15160479;23;20034;-37
2023/01/19 22:09:10;;;;;;;42.50;20.20;;;0.80;99.90;;;;;;15199034;23;20041;-36
2023/01/19 22:15:12;;;;;;;40.50;20.98;;;0.80;99.90;;;;;;15202279;23;20339;-36
2023/01/19 22:21:17;;;;;;;40.55;22.38;;;0.70;99.90;;;;;;15193822;23;20017;-36
2023/01/19 22:27:19;;;;;;;43.40;21.55;;;0.60;99.90;;;;;;15198002;23;20026;-36
2023/01/19 22:33:21;;;;;;;41.97;22.00;;;0.60;99.90;;;;;;15203867;23;20058;-36
2023/01/19 22:39:23;;;;;;;40.72;20.60;;;0.60;99.90;;;;;;15171898;23;20029;-36
2023/01/19 22:45:25;;;;;;;43.17;21.55;;;0.60;99.90;;;;;;15201028;23;20041;-36
2023/01/19 22:51:28;;;;;;;41.72;22.83;;;0.70;99.90;;;;;;15196932;23;20029;-36
2023/01/19 22:57:35;;;;;;;49.10;23.90;;;0.70;99.90;;;;;;15196385;23;20049;-36
2023/01/19 23:03:37;;;;;;;43.80;22.38;;;0.80;99.90;;;;;;15201461;23;20407;-36
2023/01/19 23:09:39;;;;;;;48.35;23.70;;;0.80;99.90;;;;;;15193837;23;20022;-36
2023/01/19 23:15:41;;;;;;;49.78;24.20;;;0.90;99.90;;;;;;15199666;23;20030;-36
2023/01/19 23:21:44;;;;;;;49.05;22.58;;;0.90;99.90;;;;;;15171994;23;20018;-36
2023/01/19 23:27:45;;;;;;;42.65;20.10;;;0.80;99.90;;;;;;15199926;23;20030;-36
2023/01/19 23:33:49;;;;;;;42.00;21.75;;;0.80;99.90;;;;;;15198801;23;20041;-36
2023/01/19 23:39:51;;;;;;;39.72;20.30;;;0.70;99.90;;;;;;15192724;23;20022;-36
2023/01/19 23:45:53;;;;;;;50.00;22.83;;;0.70;99.90;;;;;;15194685;23;20033;-36
2023/01/19 23:51:55;;;;;;;46.42;21.92;;;0.70;99.90;;;;;;15173778;23;20105;-35
2023/01/19 23:57:57;;;;;;;45.50;22.95;;;0.90;99.90;;;;;;15197970;23;20552;-36
